createdAt,value
2022-11-12T00:00:53.160Z,8.49
2022-11-12T00:03:20.197Z,8.48
2022-11-12T00:05:47.206Z,8.48
2022-11-12T00:08:14.033Z,8.51
2022-11-12T00:10:40.652Z,8.55
2022-11-12T00:13:07.176Z,8.55
2022-11-12T00:15:33.799Z,8.58
2022-11-12T00:18:00.582Z,8.54
2022-11-12T00:20:27.125Z,8.49
2022-11-12T00:22:53.688Z,8.47
2022-11-12T00:25:20.243Z,8.47
2022-11-12T00:27:46.739Z,8.50
2022-11-12T00:30:13.445Z,8.48
2022-11-12T00:32:40.164Z,8.47
2022-11-12T00:35:12.539Z,8.45
2022-11-12T00:37:40.570Z,8.45
2022-11-12T00:40:07.949Z,8.45
2022-11-12T00:42:34.475Z,8.45
2022-11-12T00:45:01.026Z,8.43
2022-11-12T00:47:27.582Z,8.42
2022-11-12T00:49:54.069Z,8.42
2022-11-12T00:52:20.575Z,8.44
2022-11-12T00:54:47.114Z,8.42
2022-11-12T00:57:13.610Z,8.43
2022-11-12T00:59:40.122Z,8.43
2022-11-12T01:02:06.705Z,8.43
2022-11-12T01:04:33.361Z,8.38
2022-11-12T01:06:59.958Z,8.35
2022-11-12T01:09:26.641Z,8.29
2022-11-12T01:11:53.147Z,8.25
2022-11-12T01:14:19.671Z,8.23
2022-11-12T01:16:46.276Z,8.23
2022-11-12T01:19:13.836Z,8.18
2022-11-12T01:21:43.112Z,8.10
2022-11-12T01:24:10.326Z,8.05
2022-11-12T01:26:37.616Z,8.00
2022-11-12T01:29:04.674Z,7.99
2022-11-12T01:31:37.171Z,7.92
2022-11-12T01:34:06.825Z,7.87
2022-11-12T01:36:36.733Z,7.86
2022-11-12T01:39:05.220Z,7.87
2022-11-12T01:41:33.791Z,7.89
2022-11-12T01:44:07.286Z,7.87
2022-11-12T01:46:37.328Z,7.86
2022-11-12T01:49:09.018Z,7.79
2022-11-12T01:51:42.682Z,7.72
2022-11-12T01:54:13.498Z,7.71
2022-11-12T01:56:42.466Z,7.68
2022-11-12T01:59:17.100Z,7.69
2022-11-12T02:01:43.629Z,7.73
2022-11-12T02:04:10.420Z,7.75
2022-11-12T02:06:39.401Z,7.75
2022-11-12T02:09:05.945Z,7.71
2022-11-12T02:11:32.448Z,7.70
2022-11-12T02:14:00.898Z,7.71
2022-11-12T02:16:39.027Z,7.71
2022-11-12T02:19:08.835Z,7.69
2022-11-12T02:21:36.085Z,7.61
2022-11-12T02:24:26.792Z,7.58
2022-11-12T02:26:55.546Z,7.58
2022-11-12T02:29:23.020Z,7.56
2022-11-12T02:31:49.612Z,7.51
2022-11-12T02:34:16.119Z,7.51
2022-11-12T02:36:42.605Z,7.53
2022-11-12T02:39:09.141Z,7.59
2022-11-12T02:41:35.674Z,7.61
2022-11-12T02:44:02.189Z,7.61
2022-11-12T02:46:28.719Z,7.60
2022-11-12T02:48:55.261Z,7.57
2022-11-12T02:51:21.811Z,7.57
2022-11-12T02:53:48.340Z,7.57
2022-11-12T02:56:14.868Z,7.59
2022-11-12T02:58:41.383Z,7.58
2022-11-12T03:01:07.995Z,7.56
2022-11-12T03:03:34.505Z,7.54
2022-11-12T03:06:01.681Z,7.51
2022-11-12T03:08:28.923Z,7.45
2022-11-12T03:10:55.661Z,7.38
2022-11-12T03:13:22.209Z,7.33
2022-11-12T03:15:48.792Z,7.32
2022-11-12T03:18:16.299Z,7.32
2022-11-12T03:20:42.836Z,7.31
2022-11-12T03:23:11.367Z,7.28
2022-11-12T03:25:38.633Z,7.26
2022-11-12T03:28:09.355Z,7.26
2022-11-12T03:30:39.114Z,7.26
2022-11-12T03:33:07.240Z,7.27
2022-11-12T03:35:34.762Z,7.30
2022-11-12T03:38:02.060Z,7.28
2022-11-12T03:40:29.166Z,7.27
2022-11-12T03:42:56.220Z,7.24
2022-11-12T03:45:25.433Z,7.19
2022-11-12T03:47:54.799Z,7.16
2022-11-12T03:50:24.830Z,7.15
2022-11-12T03:52:53.529Z,7.16
2022-11-12T03:55:22.146Z,7.21
2022-11-12T03:57:49.753Z,7.21
2022-11-12T04:00:17.052Z,7.24
2022-11-12T04:02:43.814Z,7.26
2022-11-12T04:05:28.982Z,7.31
2022-11-12T04:08:21.545Z,7.30
2022-11-12T04:10:48.489Z,7.31
2022-11-12T04:13:30.448Z,7.33
2022-11-12T04:16:23.316Z,7.34
2022-11-12T04:19:10.797Z,7.36
2022-11-12T04:21:50.915Z,7.31
2022-11-12T04:24:54.477Z,7.26
2022-11-12T04:27:32.626Z,7.19
2022-11-12T04:30:18.961Z,7.16
2022-11-12T04:32:54.692Z,7.18
2022-11-12T04:35:23.204Z,7.14
2022-11-12T04:37:50.078Z,7.11
2022-11-12T04:40:39.236Z,7.11
2022-11-12T04:43:26.190Z,7.09
2022-11-12T04:45:54.280Z,7.11
2022-11-12T04:48:21.814Z,7.10
2022-11-12T04:50:52.849Z,7.13
2022-11-12T04:53:19.830Z,7.19
2022-11-12T04:55:50.084Z,7.19
2022-11-12T04:58:16.821Z,7.14
2022-11-12T05:00:43.362Z,7.12
2022-11-12T05:03:09.955Z,7.15
2022-11-12T05:05:36.792Z,7.20
2022-11-12T05:08:03.393Z,7.23
2022-11-12T05:10:30.885Z,7.23
2022-11-12T05:12:57.651Z,7.20
2022-11-12T05:15:24.440Z,7.18
2022-11-12T05:17:51.000Z,7.18
2022-11-12T05:20:18.223Z,7.25
2022-11-12T05:22:59.007Z,7.30
2022-11-12T05:25:31.302Z,7.31
2022-11-12T05:27:57.804Z,7.32
2022-11-12T05:30:24.372Z,7.29
2022-11-12T05:32:50.896Z,7.32
2022-11-12T05:35:17.393Z,7.35
2022-11-12T05:37:44.110Z,7.34
2022-11-12T05:40:10.944Z,7.34
2022-11-12T05:42:37.473Z,7.34
2022-11-12T05:45:04.479Z,7.30
2022-11-12T05:47:30.964Z,7.29
2022-11-12T05:49:57.461Z,7.26
2022-11-12T05:52:24.107Z,7.25
2022-11-12T05:54:50.628Z,7.28
2022-11-12T05:57:17.172Z,7.76
2022-11-12T05:59:43.680Z,8.60
2022-11-12T06:02:10.223Z,9.21
2022-11-12T06:04:36.881Z,9.70
2022-11-12T06:07:04.249Z,10.03
2022-11-12T06:09:30.884Z,10.29
2022-11-12T06:11:57.420Z,10.52
2022-11-12T06:14:23.952Z,10.53
2022-11-12T06:16:50.477Z,10.52
2022-11-12T06:19:17.029Z,10.49
2022-11-12T06:21:43.566Z,10.41
2022-11-12T06:24:10.648Z,10.35
2022-11-12T06:26:38.025Z,10.10
2022-11-12T06:29:04.696Z,10.06
2022-11-12T06:31:31.421Z,9.75
2022-11-12T06:33:57.946Z,9.38
2022-11-12T06:36:24.702Z,9.13
2022-11-12T06:38:51.251Z,8.94
2022-11-12T06:41:17.948Z,8.91
2022-11-12T06:43:44.525Z,8.92
2022-11-12T06:46:15.127Z,8.90
2022-11-12T06:48:43.081Z,9.04
2022-11-12T06:51:18.649Z,9.10
2022-11-12T06:53:45.399Z,9.16
2022-11-12T06:56:12.886Z,9.11
2022-11-12T06:58:40.092Z,9.06
2022-11-12T07:01:12.955Z,8.91
2022-11-12T07:03:41.966Z,9.37
2022-11-12T07:06:11.335Z,9.57
2022-11-12T07:08:38.968Z,9.52
2022-11-12T07:11:06.902Z,9.29
2022-11-12T07:13:35.251Z,9.01
2022-11-12T07:16:02.869Z,8.78
2022-11-12T07:18:30.722Z,8.59
2022-11-12T07:21:02.787Z,8.45
2022-11-12T07:23:30.600Z,8.26
2022-11-12T07:26:04.878Z,8.19
2022-11-12T07:28:31.865Z,8.11
2022-11-12T07:31:01.005Z,8.02
2022-11-12T07:33:28.831Z,7.94
2022-11-12T07:36:07.964Z,7.85
2022-11-12T07:38:36.614Z,7.83
2022-11-12T07:41:05.952Z,7.80
2022-11-12T07:43:34.401Z,7.78
2022-11-12T07:46:07.515Z,7.72
2022-11-12T07:48:37.460Z,7.70
2022-11-12T07:51:06.053Z,7.64
2022-11-12T07:53:32.944Z,7.62
2022-11-12T07:56:01.310Z,7.62
2022-11-12T07:58:31.300Z,7.61
2022-11-12T08:00:58.346Z,7.66
2022-11-12T08:03:24.875Z,7.67
2022-11-12T08:05:51.461Z,7.70
2022-11-12T08:08:17.961Z,7.75
2022-11-12T08:10:44.477Z,7.74
2022-11-12T08:13:10.965Z,7.74
2022-11-12T08:15:37.485Z,7.73
2022-11-12T08:18:04.143Z,7.74
2022-11-12T08:20:30.637Z,7.78
2022-11-12T08:23:00.275Z,7.80
2022-11-12T08:25:27.208Z,7.84
2022-11-12T08:27:57.077Z,7.81
2022-11-12T08:30:23.862Z,7.82
2022-11-12T08:32:59.700Z,7.79
2022-11-12T08:35:27.771Z,7.75
2022-11-12T08:37:59.012Z,7.76
2022-11-12T08:40:26.847Z,7.77
2022-11-12T08:43:00.998Z,7.76
2022-11-12T08:45:28.679Z,7.81
2022-11-12T08:48:13.921Z,7.79
2022-11-12T08:50:41.264Z,7.84
2022-11-12T08:53:13.372Z,7.85
2022-11-12T08:55:40.500Z,7.83
2022-11-12T08:58:07.643Z,7.85
2022-11-12T09:00:37.061Z,7.86
2022-11-12T09:03:05.304Z,7.87
2022-11-12T09:05:32.574Z,7.84
2022-11-12T09:08:05.831Z,7.81
2022-11-12T09:10:33.464Z,7.84
2022-11-12T09:13:00.302Z,7.85
2022-11-12T09:15:42.990Z,7.90
2022-11-12T09:18:15.679Z,7.93
2022-11-12T09:20:42.413Z,7.96
2022-11-12T09:23:11.615Z,7.97
2022-11-12T09:25:39.180Z,8.02
2022-11-12T09:28:08.482Z,8.06
2022-11-12T09:30:36.307Z,8.09
2022-11-12T09:33:02.835Z,8.15
2022-11-12T09:35:30.072Z,8.20
2022-11-12T09:37:58.400Z,8.22
2022-11-12T09:40:49.450Z,8.25
2022-11-12T09:43:23.462Z,8.26
2022-11-12T09:46:06.901Z,8.29
2022-11-12T09:48:46.066Z,8.32
2022-11-12T09:51:17.472Z,8.38
2022-11-12T09:53:52.458Z,8.41
2022-11-12T09:56:24.198Z,8.46
2022-11-12T09:58:51.865Z,8.50
2022-11-12T10:01:21.479Z,8.54
2022-11-12T10:03:56.931Z,8.53
2022-11-12T10:06:27.870Z,8.56
2022-11-12T10:09:24.025Z,8.56
2022-11-12T10:12:31.080Z,8.59
2022-11-12T10:16:00.995Z,8.58
2022-11-12T10:19:05.125Z,8.58
2022-11-12T10:21:40.902Z,8.62
2022-11-12T10:24:11.874Z,8.67
2022-11-12T10:26:39.989Z,8.73
2022-11-12T10:29:06.423Z,8.72
2022-11-12T10:31:33.076Z,8.75
2022-11-12T10:34:11.472Z,8.78
2022-11-12T10:36:40.478Z,8.78
2022-11-12T10:39:07.026Z,8.77
2022-11-12T10:41:34.199Z,8.74
2022-11-12T10:44:03.819Z,8.74
2022-11-12T10:46:36.496Z,8.74
2022-11-12T10:49:05.509Z,8.78
2022-11-12T10:51:37.754Z,8.82
2022-11-12T10:54:37.728Z,8.83
2022-11-12T10:57:22.791Z,8.83
2022-11-12T11:00:06.876Z,8.84
2022-11-12T11:02:33.477Z,8.82
2022-11-12T11:05:00.007Z,8.78
2022-11-12T11:07:26.705Z,8.78
2022-11-12T11:09:55.951Z,8.74
2022-11-12T11:12:26.999Z,8.72
2022-11-12T11:15:23.988Z,8.74
2022-11-12T11:17:50.700Z,8.79
2022-11-12T11:20:43.796Z,8.81
2022-11-12T11:23:25.311Z,8.85
2022-11-12T11:25:55.057Z,8.90
2022-11-12T11:28:29.402Z,8.93
2022-11-12T11:31:39.707Z,8.82
2022-11-12T11:34:28.126Z,8.80
2022-11-12T11:37:05.045Z,8.83
2022-11-12T11:39:42.521Z,8.87
2022-11-12T11:42:18.021Z,8.91
2022-11-12T11:45:26.077Z,8.90
2022-11-12T11:48:01.762Z,8.97
2022-11-12T11:50:51.747Z,9.01
2022-11-12T11:53:26.719Z,9.07
2022-11-12T11:56:10.356Z,9.02
2022-11-12T11:58:59.171Z,9.12
2022-11-12T12:01:42.162Z,9.15
2022-11-12T12:04:30.436Z,9.13
2022-11-12T12:07:15.778Z,9.18
2022-11-12T12:09:47.955Z,9.28
2022-11-12T12:12:37.045Z,9.36
2022-11-12T12:16:13.329Z,9.35
2022-11-12T12:18:58.691Z,9.44
2022-11-12T12:21:31.902Z,9.55
2022-11-12T12:24:03.727Z,9.58
2022-11-12T12:26:37.191Z,9.63
2022-11-12T12:29:15.704Z,9.69
2022-11-12T12:31:56.029Z,9.70
2022-11-12T12:34:32.405Z,9.73
2022-11-12T12:37:34.676Z,9.73
2022-11-12T12:40:22.615Z,9.69
2022-11-12T12:43:01.879Z,9.65
2022-11-12T12:45:38.255Z,9.60
2022-11-12T12:48:12.864Z,9.55
2022-11-12T12:50:41.296Z,9.60
2022-11-12T12:53:29.158Z,9.66
2022-11-12T12:55:58.345Z,9.71
2022-11-12T12:58:41.883Z,9.74
2022-11-12T13:01:29.094Z,9.72
2022-11-12T13:03:59.510Z,9.73
2022-11-12T13:06:27.731Z,9.76
2022-11-12T13:09:06.231Z,9.81
2022-11-12T13:12:00.347Z,9.88
2022-11-12T13:14:35.912Z,9.94
2022-11-12T13:17:11.725Z,10.02
2022-11-12T13:20:10.734Z,10.04
2022-11-12T13:22:40.007Z,10.09
2022-11-12T13:25:13.405Z,10.05
2022-11-12T13:27:40.147Z,10.09
2022-11-12T13:30:20.800Z,10.05
2022-11-12T13:32:47.286Z,10.02
2022-11-12T13:35:21.577Z,10.01
2022-11-12T13:37:54.187Z,10.04
2022-11-12T13:40:26.805Z,10.03
2022-11-12T13:42:53.637Z,10.04
2022-11-12T13:45:23.864Z,10.09
2022-11-12T13:47:51.883Z,10.09
2022-11-12T13:50:22.512Z,10.11
2022-11-12T13:52:49.796Z,10.08
2022-11-12T13:55:19.244Z,10.06
2022-11-12T13:57:50.625Z,10.08
2022-11-12T14:00:17.099Z,10.11
2022-11-12T14:02:51.982Z,10.15
2022-11-12T14:05:23.376Z,10.15
2022-11-12T14:08:08.729Z,10.14
2022-11-12T14:10:45.900Z,10.19
2022-11-12T14:13:27.733Z,10.23
2022-11-12T14:16:00.349Z,10.27
2022-11-12T14:18:58.589Z,10.27
2022-11-12T14:21:25.322Z,10.29
2022-11-12T14:23:52.906Z,10.29
2022-11-12T14:26:43.015Z,10.28
2022-11-12T14:29:19.608Z,10.29
2022-11-12T14:31:46.682Z,10.28
2022-11-12T14:34:27.010Z,10.21
2022-11-12T14:36:56.003Z,10.09
2022-11-12T14:39:30.612Z,10.05
2022-11-12T14:41:59.515Z,10.05
2022-11-12T14:44:35.121Z,10.03
2022-11-12T14:47:01.976Z,10.06
2022-11-12T14:49:46.913Z,10.03
2022-11-12T14:52:21.779Z,10.00
2022-11-12T14:54:58.301Z,10.02
2022-11-12T14:57:29.743Z,10.03
2022-11-12T14:59:57.350Z,10.02
2022-11-12T15:02:49.934Z,10.00
2022-11-12T15:05:21.306Z,9.96
2022-11-12T15:07:57.392Z,9.95
2022-11-12T15:10:45.720Z,9.91
2022-11-12T15:13:20.559Z,9.92
2022-11-12T15:15:52.276Z,9.89
2022-11-12T15:18:29.523Z,9.86
2022-11-12T15:21:22.908Z,9.84
2022-11-12T15:23:51.953Z,9.89
2022-11-12T15:26:33.961Z,9.85
2022-11-12T15:29:23.692Z,9.77
2022-11-12T15:31:53.283Z,9.76
2022-11-12T15:34:28.900Z,9.74
2022-11-12T15:36:56.913Z,9.74
2022-11-12T15:39:26.216Z,9.70
2022-11-12T15:41:58.350Z,9.70
2022-11-12T15:44:25.487Z,9.69
2022-11-12T15:46:53.439Z,9.68
2022-11-12T15:49:20.102Z,9.68
2022-11-12T15:51:46.684Z,9.68
2022-11-12T15:54:13.232Z,9.66
2022-11-12T15:56:39.953Z,9.65
2022-11-12T15:59:06.616Z,9.66
2022-11-12T16:01:33.244Z,9.67
2022-11-12T16:03:59.877Z,9.67
2022-11-12T16:06:26.402Z,9.67
2022-11-12T16:08:52.921Z,9.67
2022-11-12T16:11:38.059Z,9.61
2022-11-12T16:14:09.603Z,9.58
2022-11-12T16:16:37.756Z,9.56
2022-11-12T16:19:04.300Z,9.58
2022-11-12T16:21:30.948Z,9.58
2022-11-12T16:23:57.518Z,9.56
2022-11-12T16:26:28.689Z,9.56
2022-11-12T16:28:55.381Z,9.57
2022-11-12T16:31:22.049Z,9.57
2022-11-12T16:33:48.638Z,9.53
2022-11-12T16:36:16.057Z,9.51
2022-11-12T16:38:42.706Z,9.49
2022-11-12T16:41:13.984Z,9.44
2022-11-12T16:43:40.506Z,9.38
2022-11-12T16:46:15.097Z,9.37
2022-11-12T16:48:41.644Z,9.37
2022-11-12T16:51:16.685Z,9.36
2022-11-12T16:53:43.522Z,9.36
2022-11-12T16:56:17.562Z,9.34
2022-11-12T16:58:44.775Z,9.31
2022-11-12T17:01:29.155Z,9.27
2022-11-12T17:03:57.275Z,9.29
2022-11-12T17:06:38.442Z,9.31
2022-11-12T17:09:06.220Z,9.30
2022-11-12T17:11:34.141Z,9.24
2022-11-12T17:14:01.204Z,9.20
2022-11-12T17:16:28.314Z,9.18
2022-11-12T17:18:56.502Z,9.17
2022-11-12T17:21:23.585Z,9.17
2022-11-12T17:23:50.292Z,9.14
2022-11-12T17:26:19.751Z,9.12
2022-11-12T17:28:46.816Z,9.11
2022-11-12T17:31:21.834Z,9.10
2022-11-12T17:33:53.029Z,9.09
2022-11-12T17:36:25.888Z,9.11
2022-11-12T17:39:00.306Z,9.09
2022-11-12T17:41:28.776Z,9.13
2022-11-12T17:43:56.784Z,9.13
2022-11-12T17:46:24.052Z,9.15
2022-11-12T17:48:50.652Z,9.16
2022-11-12T17:51:20.901Z,9.14
2022-11-12T17:53:47.646Z,9.15
2022-11-12T17:56:17.420Z,9.19
2022-11-12T17:58:45.520Z,9.19
2022-11-12T18:01:16.266Z,9.18
2022-11-12T18:03:44.692Z,9.17
2022-11-12T18:06:16.502Z,9.17
2022-11-12T18:08:43.949Z,9.18
2022-11-12T18:11:13.009Z,9.19
2022-11-12T18:13:39.598Z,9.17
2022-11-12T18:16:19.895Z,9.11
2022-11-12T18:18:46.538Z,9.12
2022-11-12T18:21:13.854Z,9.12
2022-11-12T18:23:43.639Z,9.13
2022-11-12T18:26:14.986Z,9.13
2022-11-12T18:28:42.535Z,9.11
2022-11-12T18:31:11.946Z,9.09
2022-11-12T18:33:38.997Z,9.09
2022-11-12T18:36:08.790Z,9.06
2022-11-12T18:38:36.005Z,9.05
2022-11-12T18:41:06.911Z,9.03
2022-11-12T18:43:35.498Z,9.03
2022-11-12T18:46:02.125Z,9.02
2022-11-12T18:48:29.878Z,9.02
2022-11-12T18:51:11.336Z,8.97
2022-11-12T18:53:39.666Z,8.94
2022-11-12T18:56:15.301Z,8.88
2022-11-12T18:58:41.898Z,8.84
2022-11-12T19:01:12.062Z,8.83
2022-11-12T19:03:38.743Z,8.77
2022-11-12T19:06:06.673Z,8.69
2022-11-12T19:08:34.032Z,8.60
2022-11-12T19:11:05.901Z,8.56
2022-11-12T19:13:33.030Z,8.56
2022-11-12T19:16:08.904Z,8.54
2022-11-12T19:18:35.508Z,8.56
2022-11-12T19:21:05.255Z,8.57
2022-11-12T19:23:33.121Z,8.58
2022-11-12T19:26:00.757Z,8.58
2022-11-12T19:28:27.745Z,8.57
2022-11-12T19:30:54.474Z,8.60
2022-11-12T19:33:21.069Z,8.61
2022-11-12T19:35:47.669Z,8.61
2022-11-12T19:38:15.319Z,8.65
2022-11-12T19:40:42.425Z,8.64
2022-11-12T19:43:08.969Z,8.63
2022-11-12T19:45:35.494Z,8.61
2022-11-12T19:48:02.972Z,8.59
2022-11-12T19:50:30.748Z,8.60
2022-11-12T19:52:57.347Z,8.61
2022-11-12T19:55:25.696Z,8.59
2022-11-12T19:57:52.294Z,8.56
2022-11-12T20:00:18.906Z,8.54
2022-11-12T20:02:45.438Z,8.55
2022-11-12T20:05:12.151Z,8.56
2022-11-12T20:07:38.823Z,8.58
2022-11-12T20:10:05.681Z,8.59
2022-11-12T20:12:33.035Z,8.61
2022-11-12T20:14:59.569Z,8.62
2022-11-12T20:17:26.107Z,8.61
2022-11-12T20:19:52.624Z,8.59
2022-11-12T20:22:19.183Z,8.56
2022-11-12T20:24:45.675Z,8.56
2022-11-12T20:27:12.226Z,8.56
2022-11-12T20:29:38.869Z,8.55
2022-11-12T20:32:05.703Z,8.55
2022-11-12T20:34:32.221Z,8.55
2022-11-12T20:36:58.729Z,8.55
2022-11-12T20:39:25.292Z,8.54
2022-11-12T20:41:51.899Z,8.56
2022-11-12T20:44:18.389Z,8.57
2022-11-12T20:46:46.059Z,8.53
2022-11-12T20:49:12.554Z,8.49
2022-11-12T20:51:39.741Z,8.50
2022-11-12T20:54:06.343Z,8.54
2022-11-12T20:56:32.863Z,8.53
2022-11-12T20:58:59.937Z,8.54
2022-11-12T21:01:28.430Z,8.52
2022-11-12T21:03:56.264Z,8.54
2022-11-12T21:06:26.074Z,8.56
2022-11-12T21:08:52.848Z,8.56
2022-11-12T21:11:21.899Z,8.56
2022-11-12T21:13:48.813Z,8.58
2022-11-12T21:16:15.410Z,8.58
2022-11-12T21:18:42.271Z,8.60
2022-11-12T21:21:14.036Z,8.60
2022-11-12T21:23:46.429Z,8.54
2022-11-12T21:26:19.319Z,8.49
2022-11-12T21:28:48.495Z,8.46
2022-11-12T21:31:18.062Z,8.47
2022-11-12T21:33:45.155Z,8.47
2022-11-12T21:36:16.198Z,8.42
2022-11-12T21:38:44.119Z,8.39
2022-11-12T21:41:17.157Z,8.33
2022-11-12T21:43:44.996Z,8.32
2022-11-12T21:46:14.566Z,8.29
2022-11-12T21:48:41.152Z,8.25
2022-11-12T21:51:11.587Z,8.27
2022-11-12T21:53:38.953Z,8.28
2022-11-12T21:56:16.840Z,8.28
2022-11-12T21:58:44.310Z,8.30
2022-11-12T22:01:10.841Z,8.31
2022-11-12T22:03:38.210Z,8.33
2022-11-12T22:06:05.975Z,8.34
2022-11-12T22:08:33.342Z,8.36
2022-11-12T22:11:08.713Z,8.37
2022-11-12T22:13:35.828Z,8.35
2022-11-12T22:16:17.438Z,8.34
2022-11-12T22:18:46.276Z,8.34
2022-11-12T22:21:18.829Z,8.37
2022-11-12T22:23:45.410Z,8.36
2022-11-12T22:26:25.184Z,8.36
2022-11-12T22:28:53.318Z,8.37
2022-11-12T22:31:22.201Z,8.37
2022-11-12T22:33:49.080Z,8.42
2022-11-12T22:36:21.050Z,8.41
2022-11-12T22:38:48.791Z,8.35
2022-11-12T22:41:17.971Z,8.43
2022-11-12T22:43:53.091Z,8.44
2022-11-12T22:46:22.106Z,8.46
2022-11-12T22:48:48.941Z,8.48
2022-11-12T22:51:17.674Z,8.53
2022-11-12T22:53:44.497Z,8.53
2022-11-12T22:56:13.563Z,8.55
2022-11-12T22:58:45.335Z,8.54
2022-11-12T23:01:22.657Z,8.45
2022-11-12T23:03:51.010Z,8.50
2022-11-12T23:06:18.386Z,8.52
2022-11-12T23:08:45.187Z,8.49
2022-11-12T23:11:15.010Z,8.47
2022-11-12T23:13:41.831Z,8.48
2022-11-12T23:16:14.719Z,8.48
2022-11-12T23:18:41.566Z,8.46
2022-11-12T23:21:11.807Z,8.45
2022-11-12T23:23:38.850Z,8.47
2022-11-12T23:26:12.078Z,8.47
2022-11-12T23:28:38.740Z,8.49
2022-11-12T23:31:09.909Z,8.52
2022-11-12T23:33:36.427Z,8.52
2022-11-12T23:36:09.739Z,8.53
2022-11-12T23:38:36.602Z,8.55
2022-11-12T23:41:04.103Z,8.57
2022-11-12T23:43:31.184Z,8.59
2022-11-12T23:45:58.272Z,8.57
2022-11-12T23:48:25.373Z,8.55
2022-11-12T23:51:04.252Z,8.51
2022-11-12T23:53:33.588Z,8.52
2022-11-12T23:56:00.408Z,8.54
2022-11-12T23:58:27.397Z,8.55
